F/V Kersatao — FHQJ — position and weather

sailwx.info

Track history (hours):
 
Tides and Currents Weather Stations Pressure Air Temp Water Temp Dewpoint Dewpoint Depression Visibility Wind Speed Wind Dir Waves Ship Positions

F/V Kersatao

Last reported at 2018-Jun-18 05:12 UTC. Time now 2018-Jun-18 06:00 UTC.
Position N 46°18' W 002°41'.

Length 21 m.

Type: Fishing. MMSI: 227879000.

Date/timePositionNaut miles runAvg speedWind from/ knotsBaromVisibWave heightAir tempDewpointWater temp
2018-Jun-18 05:12N 46°18' W 002°41'55 7.6
2018-Jun-17 22:01N 47°13' W 002°43'1 8.2
2018-Jun-17 21:57N 47°13' W 002°42'4 8.4
2018-Jun-17 21:30N 47°15' W 002°37'4 8.4
2018-Jun-17 20:59N 47°19' W 002°34'  
2018-Jun-14 12:59N 47°18' W 002°42'6 9.3
2018-Jun-14 12:21N 47°16' W 002°50'34 3.8
2018-Jun-14 03:16N 47°16' W 003°41'5 3.9
2018-Jun-14 01:53N 47°11' W 003°46'7 2.6
2018-Jun-13 23:14N 47°18' W 003°48'1 3.2
2018-Jun-13 22:47N 47°18' W 003°46'1 3.3
2018-Jun-13 22:29N 47°18' W 003°45'2 3.3
2018-Jun-13 21:50N 47°18' W 003°41'1 3.1
2018-Jun-13 21:27N 47°18' W 003°40'18 1.3
2018-Jun-13 07:55N 47°00' W 003°37'12 2.6
2018-Jun-13 03:12N 47°12' W 003°39'3 8.4
2018-Jun-13 02:52N 47°14' W 003°36'3 8.4
2018-Jun-13 02:30N 47°16' W 003°32'4 8.2
2018-Jun-13 02:00N 47°18' W 003°28'4 8.2
2018-Jun-13 01:30N 47°21' W 003°23'4 7.9
2018-Jun-13 01:00N 47°24' W 003°18'4 7.3
2018-Jun-13 00:30N 47°26' W 003°14'4 7.5
2018-Jun-13 00:00N 47°27' W 003°09'2 3.3
2018-Jun-12 23:30N 47°29' W 003°07'0 0.5
2018-Jun-12 23:00N 47°28' W 003°07'4 7.3
2018-Jun-12 22:31N 47°26' W 003°12'5 9.7
2018-Jun-12 22:00N 47°24' W 003°18'510.3
2018-Jun-12 21:30N 47°20' W 003°23'5 9.5
2018-Jun-12 21:00N 47°17' W 003°29'11 0.7
2018-Jun-12 05:09N 47°10' W 003°40'8 1.2
2018-Jun-11 22:36N 47°14' W 003°49'0 3.3
2018-Jun-11 22:30N 47°14' W 003°48'38 1.7
2018-Jun-10 23:48N 47°09' W 002°52'8 7.5
2018-Jun-10 22:47N 47°13' W 002°43'2 7.8
2018-Jun-10 22:29N 47°14' W 002°40'4 7.7
2018-Jun-10 22:01N 47°17' W 002°36'4 0.2
2018-Jun-10 05:16N 47°18' W 002°31'0 0.0
2018-Jun-09 00:55N 47°18' W 002°31'8 6.3
2018-Jun-08 23:42N 47°18' W 002°42'2 8.9
2018-Jun-08 23:28N 47°17' W 002°45'5 9.1
2018-Jun-08 22:57N 47°16' W 002°51'4 9.4
2018-Jun-08 22:29N 47°14' W 002°57'5 9.3
2018-Jun-08 21:55N 47°12' W 003°04'6 9.4
2018-Jun-08 21:17N 47°10' W 003°13'9 8.2
2018-Jun-08 20:11N 47°08' W 003°25'1 3.7
2018-Jun-08 19:58N 47°07' W 003°26'3 3.6
2018-Jun-08 19:13N 47°04' W 003°25'3 3.7
2018-Jun-08 18:19N 47°01' W 003°25'1 3.8
2018-Jun-08 18:00N 46°60' W 003°26'4 2.3
2018-Jun-08 16:26N 46°60' W 003°31'1 3.0
2018-Jun-08 16:00N 46°59' W 003°33'2 1.3
2018-Jun-08 14:42N 46°60' W 003°35'1 3.8
2018-Jun-08 14:30N 46°60' W 003°34'3 2.3
2018-Jun-08 13:15N 46°57' W 003°32'1 3.2
2018-Jun-08 12:54N 46°56' W 003°33'  
Track history (hours):
 
Tides and Currents Weather Stations Pressure Air Temp Water Temp Dewpoint Dewpoint Depression Visibility Wind Speed Wind Dir Waves Ship Positions

F/V Kersatao

Last reported at 2018-Jun-18 05:12 UTC. Time now 2018-Jun-18 06:00 UTC.
Position N 46°18' W 002°41'.

Length 21 m.

Type: Fishing. MMSI: 227879000.

Date/timePositionNaut miles runAvg speedWind from/ knotsBaromVisibWave heightAir tempDewpointWater temp
2018-Jun-18 05:12N 46°18' W 002°41'55 7.6
2018-Jun-17 22:01N 47°13' W 002°43'1 8.2
2018-Jun-17 21:57N 47°13' W 002°42'4 8.4
2018-Jun-17 21:30N 47°15' W 002°37'4 8.4
2018-Jun-17 20:59N 47°19' W 002°34'  
2018-Jun-14 12:59N 47°18' W 002°42'6 9.3
2018-Jun-14 12:21N 47°16' W 002°50'34 3.8
2018-Jun-14 03:16N 47°16' W 003°41'5 3.9
2018-Jun-14 01:53N 47°11' W 003°46'7 2.6
2018-Jun-13 23:14N 47°18' W 003°48'1 3.2
2018-Jun-13 22:47N 47°18' W 003°46'1 3.3
2018-Jun-13 22:29N 47°18' W 003°45'2 3.3
2018-Jun-13 21:50N 47°18' W 003°41'1 3.1
2018-Jun-13 21:27N 47°18' W 003°40'18 1.3
2018-Jun-13 07:55N 47°00' W 003°37'12 2.6
2018-Jun-13 03:12N 47°12' W 003°39'3 8.4
2018-Jun-13 02:52N 47°14' W 003°36'3 8.4
2018-Jun-13 02:30N 47°16' W 003°32'4 8.2
2018-Jun-13 02:00N 47°18' W 003°28'4 8.2
2018-Jun-13 01:30N 47°21' W 003°23'4 7.9
2018-Jun-13 01:00N 47°24' W 003°18'4 7.3
2018-Jun-13 00:30N 47°26' W 003°14'4 7.5
2018-Jun-13 00:00N 47°27' W 003°09'2 3.3
2018-Jun-12 23:30N 47°29' W 003°07'0 0.5
2018-Jun-12 23:00N 47°28' W 003°07'4 7.3
2018-Jun-12 22:31N 47°26' W 003°12'5 9.7
2018-Jun-12 22:00N 47°24' W 003°18'510.3
2018-Jun-12 21:30N 47°20' W 003°23'5 9.5
2018-Jun-12 21:00N 47°17' W 003°29'11 0.7
2018-Jun-12 05:09N 47°10' W 003°40'8 1.2
2018-Jun-11 22:36N 47°14' W 003°49'0 3.3
2018-Jun-11 22:30N 47°14' W 003°48'38 1.7
2018-Jun-10 23:48N 47°09' W 002°52'8 7.5
2018-Jun-10 22:47N 47°13' W 002°43'2 7.8
2018-Jun-10 22:29N 47°14' W 002°40'4 7.7
2018-Jun-10 22:01N 47°17' W 002°36'4 0.2
2018-Jun-10 05:16N 47°18' W 002°31'0 0.0
2018-Jun-09 00:55N 47°18' W 002°31'8 6.3
2018-Jun-08 23:42N 47°18' W 002°42'2 8.9
2018-Jun-08 23:28N 47°17' W 002°45'5 9.1
2018-Jun-08 22:57N 47°16' W 002°51'4 9.4
2018-Jun-08 22:29N 47°14' W 002°57'5 9.3
2018-Jun-08 21:55N 47°12' W 003°04'6 9.4
2018-Jun-08 21:17N 47°10' W 003°13'9 8.2
2018-Jun-08 20:11N 47°08' W 003°25'1 3.7
2018-Jun-08 19:58N 47°07' W 003°26'3 3.6
2018-Jun-08 19:13N 47°04' W 003°25'3 3.7
2018-Jun-08 18:19N 47°01' W 003°25'1 3.8
2018-Jun-08 18:00N 46°60' W 003°26'4 2.3
2018-Jun-08 16:26N 46°60' W 003°31'1 3.0
2018-Jun-08 16:00N 46°59' W 003°33'2 1.3
2018-Jun-08 14:42N 46°60' W 003°35'1 3.8
2018-Jun-08 14:30N 46°60' W 003°34'3 2.3
2018-Jun-08 13:15N 46°57' W 003°32'1 3.2
2018-Jun-08 12:54N 46°56' W 003°33'  

Dump ship's entire track history